createdAt,value
2019-03-03T00:02:37.376Z,4.90
2019-03-03T00:05:40.590Z,3.03
2019-03-03T00:08:43.774Z,3.30
2019-03-03T00:11:46.979Z,2.83
2019-03-03T00:14:50.169Z,3.33
2019-03-03T00:17:53.446Z,4.77
2019-03-03T00:20:56.642Z,3.03
2019-03-03T00:23:59.736Z,2.57
2019-03-03T00:27:02.850Z,5.07
2019-03-03T00:30:06.309Z,3.37
2019-03-03T00:33:09.427Z,3.50
2019-03-03T00:36:12.626Z,4.60
2019-03-03T00:39:20.943Z,3.40
2019-03-03T00:42:29.153Z,3.00
2019-03-03T00:45:39.363Z,5.23
2019-03-03T00:48:46.663Z,4.10
2019-03-03T00:51:55.395Z,4.60
2019-03-03T00:55:03.721Z,3.37
2019-03-03T00:58:13.855Z,3.77
2019-03-03T01:01:21.176Z,2.20
2019-03-03T01:04:35.559Z,4.57
2019-03-03T01:07:51.918Z,3.37
2019-03-03T01:11:00.329Z,3.53
2019-03-03T01:14:08.823Z,3.03
2019-03-03T01:17:21.195Z,3.63
2019-03-03T01:20:28.543Z,2.70
2019-03-03T01:23:37.132Z,4.03
2019-03-03T01:26:40.286Z,3.63
2019-03-03T01:29:43.489Z,2.93
2019-03-03T01:32:46.595Z,3.97
2019-03-03T01:35:49.768Z,2.70
2019-03-03T01:38:52.867Z,4.53
2019-03-03T01:41:55.963Z,3.60
2019-03-03T01:44:59.156Z,3.67
2019-03-03T01:48:02.343Z,4.57
2019-03-03T01:51:05.437Z,4.10
2019-03-03T01:54:08.538Z,3.43
2019-03-03T01:57:11.728Z,2.27
2019-03-03T02:00:25.007Z,5.90
2019-03-03T02:03:28.155Z,3.83
2019-03-03T02:06:31.352Z,3.10
2019-03-03T02:09:34.551Z,2.40
2019-03-03T02:12:37.734Z,3.73
2019-03-03T02:15:40.935Z,2.70
2019-03-03T02:18:44.031Z,3.80
2019-03-03T02:21:47.220Z,3.33
2019-03-03T02:24:50.620Z,2.90
2019-03-03T02:27:53.794Z,3.87
2019-03-03T02:30:56.895Z,2.93
2019-03-03T02:33:59.983Z,3.27
2019-03-03T02:37:03.072Z,4.03
2019-03-03T02:40:07.309Z,3.10
2019-03-03T02:43:10.394Z,6.43
2019-03-03T02:46:13.594Z,4.20
2019-03-03T02:49:16.775Z,4.67
2019-03-03T02:52:19.872Z,3.97
2019-03-03T02:55:22.989Z,3.83
2019-03-03T02:58:26.288Z,3.43
2019-03-03T03:01:33.823Z,4.47
2019-03-03T03:04:36.960Z,3.93
2019-03-03T03:07:46.184Z,3.07
2019-03-03T03:10:56.459Z,3.60
2019-03-03T03:14:08.879Z,5.67
2019-03-03T03:17:16.226Z,4.23
2019-03-03T03:20:24.370Z,3.27
2019-03-03T03:23:38.816Z,4.53
2019-03-03T03:27:45.403Z,6.13
2019-03-03T03:30:56.685Z,5.20
2019-03-03T03:34:05.227Z,3.37
2019-03-03T03:37:27.885Z,3.93
2019-03-03T03:40:35.225Z,5.33
2019-03-03T03:44:17.843Z,2.40
2019-03-03T03:47:26.142Z,4.03
2019-03-03T03:50:34.419Z,3.33
2019-03-03T03:53:42.972Z,5.87
2019-03-03T03:56:51.246Z,4.03
2019-03-03T04:00:04.680Z,5.17
2019-03-03T04:03:13.210Z,4.33
2019-03-03T04:06:22.356Z,4.90
2019-03-03T04:09:37.592Z,4.77
2019-03-03T04:12:48.887Z,4.50
2019-03-03T04:15:56.255Z,8.43
2019-03-03T04:19:05.536Z,4.53
2019-03-03T04:23:12.985Z,6.77
2019-03-03T04:26:30.299Z,5.77
2019-03-03T04:29:37.686Z,6.03
2019-03-03T04:32:47.787Z,6.00
2019-03-03T04:35:56.431Z,5.17
2019-03-03T04:39:05.065Z,5.20
2019-03-03T04:42:13.665Z,7.20
2019-03-03T04:45:24.023Z,5.57
2019-03-03T04:48:32.365Z,5.07
2019-03-03T04:51:44.806Z,4.43
2019-03-03T04:54:54.063Z,6.37
2019-03-03T04:58:04.342Z,5.93
2019-03-03T05:03:16.214Z,9.53
2019-03-03T05:06:23.494Z,6.40
2019-03-03T05:09:31.867Z,4.67
2019-03-03T05:12:40.561Z,6.67
2019-03-03T05:15:51.880Z,7.07
2019-03-03T05:18:59.939Z,8.00
2019-03-03T05:22:03.058Z,6.53
2019-03-03T05:25:06.367Z,6.63
2019-03-03T05:28:09.443Z,5.67
2019-03-03T05:31:12.634Z,6.33
2019-03-03T05:34:15.716Z,6.27
2019-03-03T05:37:18.824Z,6.70
2019-03-03T05:40:22.012Z,10.27
2019-03-03T05:43:25.104Z,8.30
2019-03-03T05:46:28.235Z,7.50
2019-03-03T05:49:31.392Z,10.97
2019-03-03T05:52:34.501Z,7.03
2019-03-03T05:55:37.679Z,8.33
2019-03-03T05:58:40.767Z,5.93
2019-03-03T06:01:43.962Z,6.23
2019-03-03T06:04:47.055Z,8.30
2019-03-03T06:07:50.147Z,7.77
2019-03-03T06:10:53.278Z,9.00
2019-03-03T06:13:56.336Z,11.33
2019-03-03T06:16:59.423Z,8.37
2019-03-03T06:20:03.090Z,6.80
2019-03-03T06:23:06.227Z,11.43
2019-03-03T06:26:09.419Z,7.70
2019-03-03T06:29:12.611Z,10.27
2019-03-03T06:32:15.700Z,9.53
2019-03-03T06:35:18.803Z,8.57
2019-03-03T06:38:21.990Z,9.90
2019-03-03T06:41:25.089Z,8.33
2019-03-03T06:44:28.184Z,11.43
2019-03-03T06:47:31.371Z,9.90
2019-03-03T06:50:34.571Z,9.70
2019-03-03T06:53:38.031Z,9.13
2019-03-03T06:56:41.175Z,10.87
2019-03-03T06:59:44.375Z,9.67
2019-03-03T07:02:47.559Z,12.53
2019-03-03T07:05:50.640Z,9.43
2019-03-03T07:08:53.821Z,8.87
2019-03-03T07:11:56.931Z,14.43
2019-03-03T07:15:00.182Z,10.50
2019-03-03T07:18:03.329Z,13.20
2019-03-03T07:21:06.496Z,12.77
2019-03-03T07:24:09.712Z,13.70
2019-03-03T07:27:12.892Z,12.33
2019-03-03T07:30:16.108Z,11.77
2019-03-03T07:33:29.198Z,8.27
2019-03-03T07:36:32.314Z,9.73
2019-03-03T07:39:35.503Z,8.93
2019-03-03T07:42:38.600Z,10.70
2019-03-03T07:45:41.790Z,6.37
2019-03-03T07:48:45.123Z,8.97
2019-03-03T07:51:48.390Z,5.90
2019-03-03T07:54:51.923Z,11.73
2019-03-03T07:57:55.024Z,6.73
2019-03-03T08:00:58.167Z,9.83
2019-03-03T08:04:01.281Z,6.53
2019-03-03T08:07:04.471Z,7.80
2019-03-03T08:10:08.082Z,12.20
2019-03-03T08:13:11.267Z,10.73
2019-03-03T08:16:14.482Z,8.93
2019-03-03T08:19:17.652Z,7.60
2019-03-03T08:22:20.744Z,7.80
2019-03-03T08:25:23.936Z,5.33
2019-03-03T08:28:27.139Z,9.53
2019-03-03T08:31:30.323Z,9.27
2019-03-03T08:34:33.527Z,8.33
2019-03-03T08:37:36.724Z,9.03
2019-03-03T08:40:39.915Z,9.67
2019-03-03T08:43:47.781Z,8.70
2019-03-03T08:46:56.351Z,5.93
2019-03-03T08:50:05.724Z,5.57
2019-03-03T08:53:24.177Z,6.67
2019-03-03T08:56:35.519Z,7.53
2019-03-03T08:59:46.779Z,8.93
2019-03-03T09:03:25.655Z,8.83
2019-03-03T09:06:35.987Z,8.33
2019-03-03T09:09:54.475Z,7.97
2019-03-03T09:13:03.676Z,9.70
2019-03-03T09:16:11.823Z,5.87
2019-03-03T09:19:20.328Z,8.93
2019-03-03T09:22:27.779Z,5.27
2019-03-03T09:25:54.201Z,7.87
2019-03-03T09:29:01.597Z,6.53
2019-03-03T09:32:29.175Z,5.67
2019-03-03T09:35:51.612Z,9.60
2019-03-03T09:39:00.061Z,8.03
2019-03-03T09:42:08.711Z,11.03
2019-03-03T09:45:17.027Z,6.50
2019-03-03T09:49:24.380Z,6.03
2019-03-03T09:52:38.722Z,5.93
2019-03-03T09:55:50.975Z,5.67
2019-03-03T09:58:59.523Z,6.70
2019-03-03T10:02:25.023Z,6.77
2019-03-03T10:05:49.488Z,12.40
2019-03-03T10:08:56.869Z,6.70
2019-03-03T10:12:06.167Z,8.20
2019-03-03T10:15:16.687Z,4.83
2019-03-03T10:18:24.957Z,6.90
2019-03-03T10:21:50.403Z,5.37
2019-03-03T10:27:01.599Z,4.90
2019-03-03T10:30:12.015Z,5.90
2019-03-03T10:33:20.690Z,4.83
2019-03-03T10:36:33.189Z,9.47
2019-03-03T10:39:42.498Z,6.07
2019-03-03T10:42:49.828Z,6.43
2019-03-03T10:45:58.130Z,6.87
2019-03-03T10:51:14.667Z,8.93
2019-03-03T10:55:27.779Z,6.90
2019-03-03T10:58:35.924Z,4.97
2019-03-03T11:01:58.472Z,7.87
2019-03-03T11:05:08.925Z,5.37
2019-03-03T11:08:49.572Z,4.83
2019-03-03T11:11:57.704Z,7.80
2019-03-03T11:15:06.274Z,4.57
2019-03-03T11:18:14.574Z,5.30
2019-03-03T11:21:23.119Z,9.13
2019-03-03T11:24:46.755Z,6.23
2019-03-03T11:27:54.098Z,8.30
2019-03-03T11:31:09.346Z,4.43
2019-03-03T11:35:16.436Z,5.90
2019-03-03T11:38:29.722Z,5.93
2019-03-03T11:41:43.103Z,5.30
2019-03-03T11:44:52.336Z,8.60
2019-03-03T11:48:04.243Z,5.83
2019-03-03T11:51:08.390Z,3.77
2019-03-03T11:54:19.732Z,9.33
2019-03-03T11:58:29.362Z,3.90
2019-03-03T12:02:09.071Z,4.67
2019-03-03T12:05:17.810Z,5.87
2019-03-03T12:08:29.116Z,2.97
2019-03-03T12:11:56.450Z,3.30
2019-03-03T12:15:21.767Z,7.63
2019-03-03T12:18:29.916Z,6.90
2019-03-03T12:21:39.070Z,4.33
2019-03-03T12:24:49.403Z,5.03
2019-03-03T12:27:59.699Z,4.90
2019-03-03T12:31:11.073Z,7.87
2019-03-03T12:34:24.498Z,4.93
2019-03-03T12:37:33.080Z,4.03
2019-03-03T12:42:48.382Z,3.53
2019-03-03T12:46:28.034Z,5.53
2019-03-03T12:49:36.271Z,4.20
2019-03-03T12:53:15.075Z,4.07
2019-03-03T12:56:24.457Z,4.43
2019-03-03T12:59:31.791Z,4.30
2019-03-03T13:02:39.080Z,4.50
2019-03-03T13:05:46.375Z,7.37
2019-03-03T13:09:30.104Z,5.00
2019-03-03T13:12:38.420Z,6.87
2019-03-03T13:15:45.734Z,5.40
2019-03-03T13:18:53.110Z,3.83
2019-03-03T13:22:04.477Z,5.30
2019-03-03T13:25:14.787Z,6.07
2019-03-03T13:28:26.071Z,6.07
2019-03-03T13:31:36.365Z,5.37
2019-03-03T13:34:49.825Z,5.30
2019-03-03T13:37:57.932Z,3.90
2019-03-03T13:41:07.041Z,7.50
2019-03-03T13:44:10.244Z,5.27
2019-03-03T13:47:13.418Z,5.00
2019-03-03T13:50:16.711Z,5.07
2019-03-03T13:53:19.896Z,3.83
2019-03-03T13:56:23.118Z,3.77
2019-03-03T13:59:26.324Z,6.43
2019-03-03T14:02:29.472Z,5.10
2019-03-03T14:05:32.668Z,6.03
2019-03-03T14:08:35.860Z,4.87
2019-03-03T14:11:38.960Z,5.03
2019-03-03T14:14:42.159Z,4.27
2019-03-03T14:17:45.516Z,7.67
2019-03-03T14:20:48.657Z,6.33
2019-03-03T14:23:52.111Z,4.37
2019-03-03T14:26:55.413Z,3.60
2019-03-03T14:29:58.596Z,4.17
2019-03-03T14:33:01.746Z,3.93
2019-03-03T14:36:05.079Z,8.47
2019-03-03T14:39:08.727Z,6.27
2019-03-03T14:42:11.956Z,7.30
2019-03-03T14:45:16.262Z,4.50
2019-03-03T14:48:20.196Z,4.33
2019-03-03T14:51:23.596Z,6.90
2019-03-03T14:54:26.857Z,5.23
2019-03-03T14:57:30.071Z,6.97
2019-03-03T15:00:33.307Z,3.37
2019-03-03T15:03:36.464Z,5.53
2019-03-03T15:06:39.660Z,5.47
2019-03-03T15:09:42.940Z,4.30
2019-03-03T15:12:46.215Z,5.50
2019-03-03T15:15:49.362Z,4.57
2019-03-03T15:18:52.675Z,6.03
2019-03-03T15:21:56.678Z,7.07
2019-03-03T15:24:59.859Z,8.37
2019-03-03T15:28:03.185Z,4.63
2019-03-03T15:31:06.370Z,4.50
2019-03-03T15:34:09.925Z,5.00
2019-03-03T15:37:16.827Z,4.07
2019-03-03T15:40:20.324Z,4.93
2019-03-03T15:43:23.532Z,4.33
2019-03-03T15:46:26.695Z,6.53
2019-03-03T15:49:29.808Z,6.37
2019-03-03T15:52:32.996Z,4.83
2019-03-03T15:55:36.185Z,7.53
2019-03-03T15:58:39.355Z,5.70
2019-03-03T16:01:42.552Z,7.53
2019-03-03T16:04:45.755Z,6.13
2019-03-03T16:07:48.871Z,6.20
2019-03-03T16:10:52.190Z,4.40
2019-03-03T16:13:55.342Z,6.73
2019-03-03T16:16:58.531Z,6.40
2019-03-03T16:20:01.733Z,6.30
2019-03-03T16:23:04.918Z,5.90
2019-03-03T16:26:08.019Z,3.17
2019-03-03T16:29:11.211Z,3.87
2019-03-03T16:32:14.425Z,4.67
2019-03-03T16:35:17.623Z,6.53
2019-03-03T16:38:20.918Z,4.93
2019-03-03T16:41:23.984Z,7.63
2019-03-03T16:44:27.307Z,7.07
2019-03-03T16:47:30.495Z,4.90
2019-03-03T16:50:33.779Z,5.37
2019-03-03T16:53:36.967Z,4.13
2019-03-03T16:56:40.309Z,3.97
2019-03-03T16:59:43.467Z,5.30
2019-03-03T17:02:46.659Z,5.83
2019-03-03T17:05:49.858Z,3.93
2019-03-03T17:08:53.051Z,4.60
2019-03-03T17:11:56.135Z,5.30
2019-03-03T17:14:59.276Z,5.73
2019-03-03T17:18:02.458Z,3.70
2019-03-03T17:21:05.625Z,4.63
2019-03-03T17:24:08.807Z,6.07
2019-03-03T17:27:12.019Z,6.23
2019-03-03T17:30:17.769Z,6.27
2019-03-03T17:33:20.954Z,5.30
2019-03-03T17:36:24.139Z,4.87
2019-03-03T17:39:27.336Z,5.27
2019-03-03T17:42:30.462Z,5.27
2019-03-03T17:45:33.675Z,3.53
2019-03-03T17:48:36.839Z,5.30
2019-03-03T17:51:40.474Z,6.30
2019-03-03T17:54:47.280Z,3.50
2019-03-03T17:57:50.395Z,5.77
2019-03-03T18:00:53.492Z,4.30
2019-03-03T18:03:56.607Z,6.07
2019-03-03T18:07:00.311Z,3.57
2019-03-03T18:10:03.968Z,5.37
2019-03-03T18:13:07.107Z,7.00
2019-03-03T18:16:10.303Z,8.30
2019-03-03T18:19:13.525Z,5.33
2019-03-03T18:22:16.591Z,4.07
2019-03-03T18:25:19.779Z,5.20
2019-03-03T18:28:22.974Z,4.20
2019-03-03T18:31:26.051Z,5.87
2019-03-03T18:34:29.147Z,2.63
2019-03-03T18:37:32.344Z,4.70
2019-03-03T18:40:35.535Z,7.23
2019-03-03T18:43:38.774Z,4.73
2019-03-03T18:46:42.014Z,5.80
2019-03-03T18:49:45.124Z,6.90
2019-03-03T18:52:48.335Z,5.33
2019-03-03T18:55:51.531Z,5.93
2019-03-03T18:58:54.704Z,4.30
2019-03-03T19:01:57.805Z,4.67
2019-03-03T19:05:00.903Z,6.07
2019-03-03T19:08:04.005Z,4.47
2019-03-03T19:11:07.175Z,5.70
2019-03-03T19:14:10.264Z,7.23
2019-03-03T19:17:14.764Z,4.33
2019-03-03T19:20:18.702Z,4.93
2019-03-03T19:23:21.928Z,4.00
2019-03-03T19:26:25.096Z,5.63
2019-03-03T19:29:28.316Z,4.93
2019-03-03T19:32:33.351Z,6.57
2019-03-03T19:35:36.431Z,4.00
2019-03-03T19:38:39.607Z,5.17
2019-03-03T19:41:42.745Z,4.47
2019-03-03T19:44:45.907Z,4.97
2019-03-03T19:47:49.187Z,5.40
2019-03-03T19:50:52.288Z,5.40
2019-03-03T19:53:55.492Z,5.57
2019-03-03T19:56:58.718Z,5.37
2019-03-03T20:00:01.895Z,5.67
2019-03-03T20:03:05.181Z,3.40
2019-03-03T20:06:08.264Z,6.33
2019-03-03T20:09:16.836Z,4.70
2019-03-03T20:12:19.972Z,6.30
2019-03-03T20:15:23.063Z,6.33
2019-03-03T20:18:26.305Z,7.07
2019-03-03T20:21:29.479Z,5.77
2019-03-03T20:24:32.671Z,7.83
2019-03-03T20:27:35.791Z,3.97
2019-03-03T20:30:38.961Z,5.40
2019-03-03T20:33:42.047Z,5.77
2019-03-03T20:36:45.239Z,3.87
2019-03-03T20:39:48.427Z,4.30
2019-03-03T20:42:51.759Z,5.07
2019-03-03T20:45:55.023Z,4.47
2019-03-03T20:48:58.214Z,7.60
2019-03-03T20:52:01.308Z,6.40
2019-03-03T20:55:05.243Z,5.47
2019-03-03T20:58:08.431Z,4.23
2019-03-03T21:01:11.622Z,6.03
2019-03-03T21:04:14.844Z,7.77
2019-03-03T21:07:17.989Z,4.47
2019-03-03T21:10:21.814Z,6.50
2019-03-03T21:13:25.035Z,4.20
2019-03-03T21:16:28.211Z,5.55
2019-03-03T21:19:31.378Z,4.72
2019-03-03T21:22:34.471Z,6.45
2019-03-03T21:25:37.587Z,4.57
2019-03-03T21:28:40.759Z,3.83
2019-03-03T21:31:44.059Z,7.43
2019-03-03T21:34:47.154Z,4.60
2019-03-03T21:37:50.455Z,5.03
2019-03-03T21:40:53.712Z,5.12
2019-03-03T21:43:56.842Z,6.20
2019-03-03T21:47:00.038Z,4.53
2019-03-03T21:50:03.244Z,4.80
2019-03-03T21:53:06.452Z,3.70
2019-03-03T21:56:10.448Z,3.00
2019-03-03T21:59:13.769Z,4.50
2019-03-03T22:02:17.030Z,5.50
2019-03-03T22:05:20.243Z,6.53
2019-03-03T22:08:23.535Z,6.80
2019-03-03T22:11:26.725Z,5.23
2019-03-03T22:14:29.915Z,3.47
2019-03-03T22:17:33.127Z,4.30
2019-03-03T22:20:36.296Z,3.60
2019-03-03T22:23:39.390Z,4.23
2019-03-03T22:26:42.475Z,4.90
2019-03-03T22:29:45.777Z,3.97
2019-03-03T22:32:48.991Z,4.37
2019-03-03T22:35:52.179Z,5.60
2019-03-03T22:38:55.369Z,6.23
2019-03-03T22:41:58.679Z,3.73
2019-03-03T22:45:01.887Z,4.70
2019-03-03T22:48:05.319Z,4.13
2019-03-03T22:51:08.463Z,4.30
2019-03-03T22:54:11.567Z,3.40
2019-03-03T22:57:14.727Z,5.30
2019-03-03T23:00:31.299Z,4.63
2019-03-03T23:03:40.240Z,4.23
2019-03-03T23:06:48.144Z,3.83
2019-03-03T23:12:06.020Z,3.93
2019-03-03T23:16:49.384Z,5.20
2019-03-03T23:20:07.324Z,4.90
2019-03-03T23:23:21.634Z,4.77
2019-03-03T23:26:24.754Z,5.87
2019-03-03T23:29:27.860Z,6.70
2019-03-03T23:32:31.055Z,5.67
2019-03-03T23:35:34.239Z,4.80
2019-03-03T23:38:38.263Z,6.65
2019-03-03T23:41:41.451Z,3.83
2019-03-03T23:44:44.929Z,6.83
2019-03-03T23:47:48.171Z,4.30
2019-03-03T23:50:51.363Z,4.97
2019-03-03T23:53:54.547Z,5.80
2019-03-03T23:56:57.734Z,3.93
